Haid, Texas
Current Conditions -  °F | °C
As of 11:15 AM on Sunday 23 Nov 2014 (Local Time) from KARM Reporting Station
Clear Clear  
Wind Chill: 72°   Ceiling: Unl
Heat Index: 72°   Visibility: 10mi
Dew Point: 59°   Wind: 13mph
Humidity: 65%   Direction: 220°SW
Pressure: 29.68"   Gusts: NA
Location:  29.2155°N, 96.0266°W
Report Text: KARM 231715Z AUTO 22011KT 10SM CLR 22/15 A2968 RMK AO2 T02200151
Loading
Personal Weather Stations






























Interactive Weather Map New forecast layout! Learn more

10-Day Weather Forecast

Advertisements
Track Severe Weather on mobile